createdAt,value
2022-12-09T00:01:23.141Z,12.31
2022-12-09T00:06:28.298Z,12.43
2022-12-09T00:11:30.807Z,12.07
2022-12-09T00:16:33.289Z,12.11
2022-12-09T00:21:35.868Z,11.95
2022-12-09T00:26:38.936Z,12.40
2022-12-09T00:31:41.418Z,12.07
2022-12-09T00:36:43.792Z,12.42
2022-12-09T00:41:46.246Z,12.25
2022-12-09T00:46:48.927Z,11.81
2022-12-09T00:51:51.459Z,12.07
2022-12-09T00:56:53.995Z,11.94
2022-12-09T01:01:56.395Z,12.09
2022-12-09T01:06:58.930Z,11.93
2022-12-09T01:12:01.207Z,12.02
2022-12-09T01:17:03.887Z,11.90
2022-12-09T01:22:07.138Z,12.29
2022-12-09T01:27:09.644Z,12.04
2022-12-09T01:32:12.504Z,12.18
2022-12-09T01:37:15.067Z,11.85
2022-12-09T01:42:23.336Z,12.01
2022-12-09T01:47:25.730Z,12.06
2022-12-09T01:52:28.128Z,11.92
2022-12-09T01:57:30.785Z,11.95
2022-12-09T02:02:37.621Z,11.93
2022-12-09T02:07:40.393Z,11.96
2022-12-09T02:12:51.289Z,12.09
2022-12-09T02:18:00.481Z,12.00
2022-12-09T02:23:43.564Z,11.39
2022-12-09T02:29:04.257Z,11.92
2022-12-09T02:34:18.379Z,11.87
2022-12-09T02:39:31.164Z,11.57
2022-12-09T02:44:35.933Z,11.79
2022-12-09T02:49:41.948Z,11.81
2022-12-09T02:54:44.742Z,11.58
2022-12-09T02:59:47.764Z,11.88
2022-12-09T03:05:04.814Z,11.69
2022-12-09T03:10:13.037Z,11.72
2022-12-09T03:15:23.619Z,11.61
2022-12-09T03:20:31.071Z,11.59
2022-12-09T03:25:43.170Z,11.48
2022-12-09T03:30:47.155Z,11.29
2022-12-09T03:35:58.715Z,11.15
2022-12-09T03:41:23.062Z,11.21
2022-12-09T03:46:26.303Z,10.93
2022-12-09T03:51:37.084Z,11.06
2022-12-09T03:56:44.740Z,11.09
2022-12-09T04:01:47.793Z,10.94
2022-12-09T04:06:53.653Z,11.09
2022-12-09T04:11:56.189Z,10.77
2022-12-09T04:16:58.609Z,10.77
2022-12-09T04:22:01.323Z,10.93
2022-12-09T04:27:04.226Z,11.00
2022-12-09T04:32:06.956Z,11.01
2022-12-09T04:37:09.512Z,10.87
2022-12-09T04:42:12.191Z,10.69
2022-12-09T04:47:14.847Z,10.90
2022-12-09T04:52:20.663Z,10.73
2022-12-09T04:57:23.442Z,10.70
2022-12-09T05:02:26.765Z,10.75
2022-12-09T05:07:32.055Z,10.49
2022-12-09T05:12:34.947Z,10.72
2022-12-09T05:17:37.368Z,10.47
2022-12-09T05:22:40.102Z,10.59
2022-12-09T05:27:45.553Z,10.19
2022-12-09T05:32:48.184Z,10.56
2022-12-09T05:37:50.670Z,10.35
2022-12-09T05:42:53.034Z,10.14
2022-12-09T05:47:55.630Z,10.61
2022-12-09T05:52:58.152Z,10.49
2022-12-09T05:58:01.499Z,10.52
2022-12-09T06:03:04.301Z,10.78
2022-12-09T06:08:07.891Z,10.50
2022-12-09T06:13:10.500Z,10.66
2022-12-09T06:18:13.119Z,10.64
2022-12-09T06:23:15.995Z,10.54
2022-12-09T06:28:19.848Z,10.52
2022-12-09T06:33:52.884Z,10.78
2022-12-09T06:38:45.565Z,10.55
2022-12-09T06:43:48.239Z,10.63
2022-12-09T06:48:51.176Z,10.35
2022-12-09T06:53:54.619Z,10.76
2022-12-09T06:58:57.445Z,10.83
2022-12-09T07:04:00.310Z,10.81
2022-12-09T07:09:06.679Z,11.06
2022-12-09T07:14:10.713Z,11.08
2022-12-09T07:19:19.087Z,11.12
2022-12-09T07:24:22.047Z,11.33
2022-12-09T07:29:24.695Z,11.33
2022-12-09T07:34:27.483Z,11.48
2022-12-09T07:39:30.416Z,11.40
2022-12-09T07:44:33.134Z,11.43
2022-12-09T07:49:35.748Z,11.81
2022-12-09T07:54:38.365Z,11.83
2022-12-09T07:59:40.873Z,11.84
2022-12-09T08:04:43.464Z,11.98
2022-12-09T08:09:46.451Z,12.16
2022-12-09T08:14:49.386Z,12.35
2022-12-09T08:19:53.178Z,12.31
2022-12-09T08:24:55.848Z,12.35
2022-12-09T08:29:58.493Z,12.50
2022-12-09T08:35:01.225Z,12.57
2022-12-09T08:40:04.971Z,12.91
2022-12-09T08:45:07.929Z,13.04
2022-12-09T08:50:11.416Z,13.36
2022-12-09T08:55:14.001Z,13.22
2022-12-09T09:00:17.487Z,13.65
2022-12-09T09:05:20.010Z,13.41
2022-12-09T09:10:22.701Z,13.85
2022-12-09T09:15:25.803Z,13.91
2022-12-09T09:20:28.360Z,13.95
2022-12-09T09:25:31.323Z,14.15
2022-12-09T09:30:34.052Z,14.09
2022-12-09T09:35:37.940Z,14.25
2022-12-09T09:40:43.753Z,14.43
2022-12-09T09:45:47.187Z,14.49
2022-12-09T09:51:02.282Z,14.35
2022-12-09T09:56:43.941Z,14.74
2022-12-09T10:02:13.814Z,14.94
2022-12-09T10:07:42.924Z,15.19
2022-12-09T10:13:17.716Z,15.38
2022-12-09T10:18:33.694Z,15.34
2022-12-09T10:23:36.259Z,15.55
2022-12-09T10:28:47.067Z,15.30
2022-12-09T10:33:50.525Z,15.51
2022-12-09T10:38:53.561Z,15.72
2022-12-09T10:44:23.929Z,15.66
2022-12-09T10:49:27.104Z,15.88
2022-12-09T10:54:44.221Z,16.11
2022-12-09T11:00:02.192Z,16.28
2022-12-09T11:05:29.839Z,16.22
2022-12-09T11:10:33.386Z,16.25
2022-12-09T11:15:42.076Z,16.56
2022-12-09T11:20:59.997Z,16.28
2022-12-09T11:26:04.744Z,16.78
2022-12-09T11:31:29.896Z,16.89
2022-12-09T11:36:40.142Z,16.98
2022-12-09T11:42:17.191Z,17.01
2022-12-09T11:48:22.560Z,16.78
2022-12-09T11:53:24.676Z,16.72
2022-12-09T11:58:46.720Z,16.48
2022-12-09T12:03:53.135Z,16.85
2022-12-09T12:09:04.819Z,16.77
2022-12-09T12:14:29.040Z,16.70
2022-12-09T12:19:36.712Z,16.65
2022-12-09T12:25:09.900Z,16.63
2022-12-09T12:30:33.069Z,16.48
2022-12-09T12:35:47.532Z,16.62
2022-12-09T12:40:53.997Z,16.51
2022-12-09T12:46:21.734Z,16.61
2022-12-09T12:51:26.936Z,16.69
2022-12-09T12:56:43.137Z,16.56
2022-12-09T13:02:01.272Z,16.68
2022-12-09T13:07:24.845Z,16.68
2022-12-09T13:12:54.258Z,16.68
2022-12-09T13:17:57.124Z,16.63
2022-12-09T13:23:28.730Z,16.76
2022-12-09T13:28:47.972Z,16.85
2022-12-09T13:33:52.749Z,16.85
2022-12-09T13:38:56.289Z,16.74
2022-12-09T13:44:11.397Z,16.63
2022-12-09T13:49:24.511Z,16.69
2022-12-09T13:54:28.680Z,16.65
2022-12-09T13:59:30.952Z,16.59
2022-12-09T14:04:38.298Z,16.38
2022-12-09T14:09:54.950Z,16.03
2022-12-09T14:15:23.440Z,16.42
2022-12-09T14:20:31.738Z,16.18
2022-12-09T14:25:36.759Z,15.92
2022-12-09T14:31:06.549Z,15.85
2022-12-09T14:36:14.121Z,15.77
2022-12-09T14:41:26.413Z,15.60
2022-12-09T14:46:40.400Z,15.58
2022-12-09T14:51:55.872Z,15.59
2022-12-09T14:57:01.035Z,15.36
2022-12-09T15:02:19.301Z,15.49
2022-12-09T15:07:29.041Z,15.48
2022-12-09T15:12:38.744Z,15.22
2022-12-09T15:17:46.045Z,15.39
2022-12-09T15:22:54.361Z,15.16
2022-12-09T15:28:02.312Z,15.30
2022-12-09T15:33:13.118Z,15.21
2022-12-09T15:38:15.744Z,14.80
2022-12-09T15:43:18.136Z,15.00
2022-12-09T15:48:24.350Z,14.77
2022-12-09T15:53:53.573Z,14.84
2022-12-09T15:59:01.924Z,15.02
2022-12-09T16:04:07.202Z,14.73
2022-12-09T16:09:14.732Z,14.91
2022-12-09T16:14:18.865Z,14.90
2022-12-09T16:19:39.332Z,14.89
2022-12-09T16:25:14.148Z,14.61
2022-12-09T16:30:21.384Z,14.80
2022-12-09T16:35:40.779Z,14.74
2022-12-09T16:40:46.371Z,14.70
2022-12-09T16:45:50.336Z,14.66
2022-12-09T16:51:13.145Z,14.55
2022-12-09T16:56:28.492Z,14.51
2022-12-09T17:01:35.726Z,14.57
2022-12-09T17:06:40.338Z,14.04
2022-12-09T17:11:48.529Z,14.23
2022-12-09T17:16:51.539Z,13.98
2022-12-09T17:21:55.251Z,14.12
2022-12-09T17:26:58.649Z,14.04
2022-12-09T17:32:01.029Z,14.14
2022-12-09T17:37:04.036Z,13.62
2022-12-09T17:42:06.533Z,13.87
2022-12-09T17:47:09.107Z,13.17
2022-12-09T17:52:11.728Z,13.14
2022-12-09T17:57:14.421Z,13.55
2022-12-09T18:02:16.991Z,13.85
2022-12-09T18:07:19.552Z,13.29
2022-12-09T18:12:22.355Z,12.89
2022-12-09T18:17:24.746Z,12.65
2022-12-09T18:22:27.326Z,13.10
2022-12-09T18:27:30.729Z,13.06
2022-12-09T18:32:36.165Z,13.50
2022-12-09T18:37:39.450Z,13.06
2022-12-09T18:42:41.858Z,13.06
2022-12-09T18:47:44.469Z,12.79
2022-12-09T18:52:47.823Z,13.50
2022-12-09T18:57:50.226Z,12.92
2022-12-09T19:02:52.670Z,13.08
2022-12-09T19:07:55.294Z,13.18
2022-12-09T19:12:57.977Z,13.36
2022-12-09T19:18:00.518Z,13.45
2022-12-09T19:23:03.935Z,12.74
2022-12-09T19:28:06.357Z,13.39
2022-12-09T19:33:08.955Z,13.09
2022-12-09T19:38:11.419Z,13.02
2022-12-09T19:43:14.209Z,13.65
2022-12-09T19:48:16.550Z,12.71
2022-12-09T19:53:19.145Z,13.74
2022-12-09T19:58:21.638Z,13.27
2022-12-09T20:03:25.234Z,13.28
2022-12-09T20:08:27.866Z,13.07
2022-12-09T20:13:32.184Z,12.70
2022-12-09T20:18:35.257Z,12.59
2022-12-09T20:23:39.982Z,12.58
2022-12-09T20:28:44.620Z,12.90
2022-12-09T20:33:47.535Z,12.92
2022-12-09T20:38:52.799Z,12.52
2022-12-09T20:43:57.545Z,13.10
2022-12-09T20:49:00.702Z,13.64
2022-12-09T20:54:05.847Z,13.43
2022-12-09T20:59:10.677Z,13.33
2022-12-09T21:04:13.678Z,12.79
2022-12-09T21:09:19.575Z,12.66
2022-12-09T21:14:22.318Z,13.01
2022-12-09T21:19:30.524Z,12.26
2022-12-09T21:24:33.861Z,12.46
2022-12-09T21:29:36.661Z,13.15
2022-12-09T21:34:39.318Z,12.22
2022-12-09T21:39:41.877Z,12.97
2022-12-09T21:44:44.702Z,12.23
2022-12-09T21:49:47.135Z,13.00
2022-12-09T21:54:55.220Z,13.12
2022-12-09T21:59:58.118Z,12.36
2022-12-09T22:05:00.590Z,13.01
2022-12-09T22:10:03.227Z,12.84
2022-12-09T22:15:07.756Z,12.70
2022-12-09T22:25:33.462Z,12.26
2022-12-09T22:30:37.016Z,13.05
2022-12-09T22:35:40.036Z,12.95
2022-12-09T22:40:43.484Z,13.06
2022-12-09T22:45:46.123Z,12.99
2022-12-09T22:50:48.864Z,12.55
2022-12-09T22:55:51.352Z,12.45
2022-12-09T23:00:54.970Z,12.27
2022-12-09T23:05:57.460Z,12.45
2022-12-09T23:11:13.597Z,12.17
2022-12-09T23:16:22.410Z,13.08
2022-12-09T23:21:36.501Z,12.74
2022-12-09T23:26:41.210Z,12.13
2022-12-09T23:31:44.379Z,12.27
2022-12-09T23:36:47.242Z,12.83
2022-12-09T23:41:49.759Z,12.46
2022-12-09T23:46:52.390Z,12.72
2022-12-09T23:51:54.959Z,13.02
2022-12-09T23:56:57.347Z,12.35
